Terminal Aerodrome Forecast
Issued by NWS Sioux Falls, SD

Home | Current Version | Previous Version | Graphics & Text | Print | Product List | Glossary Off
Versions: 1 2 3 4 5 6 7 8 9 10 11 12 13 14 15 16

000
FTUS43 KFSD 311122
TAFHON
TAF
KHON 311122Z 3112/0112 VRB05KT P6SM SCT050 BKN200
     FM311400 13005KT P6SM SCT050
     FM311600 14005KT P6SM SCT150=

USA.gov is the U.S. government's official web portal to all federal, state and local government web resources and services.